Airfield :
LOGIN :

Register | Disclaimer

   EN    FR    IT 

 










Legend :    VFR   Marginal VFR   IFR   Intensive IFR   Very Intensive IFR
Visi :
Ceiling :
>= 8 km
>= 3000ft
5 to 8 km
1000 to 3000 ft
1500m to 5 km
500 to 1000 ft
800 to 1500m
200 to 500 ft
< 800m
< 200 ft
Symbols :   Thunderstorms  Fog  Heavy snow  Heavy precipitations  Wind > 20 kt
SIGMETs :     Misc.  Thunderstorms  Icing  Turbulence  Mountain Waves  Volcanic Ashes






- Airport Elevation : 289 ft
- IATA code : ZAD


LDZD - Zadar

CURRENT METAR :
  • 300400Z 08008KT 050V110 CAVOK 05/M02 Q1014

EXPIRED METARs :
  • 300330Z 07006KT CAVOK 06/M02 Q1014
  • 300230Z 08008KT 050V110 CAVOK 06/M02 Q1014
  • 300200Z 07007KT 050V120 CAVOK 06/M02 Q1014
  • 300130Z 06007KT 030V100 CAVOK 07/M02 Q1014

TAF TAF LDZD
Valid from the 30 at 00:00 until the 01 at 00:00 UTC


292325Z 3000/0100 06010KT CAVOK TX11/3013Z TN05/3004Z



MET'MAP, your aeronautical weather chart ! - Copyright ORBIFLY December 2007 - Disclaimer

ORBIFLY MET'MAP TEAM :

Programming & Development : Alexandra Zaïnal
Original concept : Baudouin d'Aumeries
Technical & hardware support : Manuel Goepfert
Assistance : Marc-Olivier Méhu




SOURCES & CREDITS :

   NOAA